createdAt,value
2022-09-20T00:00:43.705Z,16.10
2022-09-20T00:03:10.713Z,16.00
2022-09-20T00:05:38.270Z,16.00
2022-09-20T00:08:06.481Z,16.00
2022-09-20T00:10:36.337Z,15.90
2022-09-20T00:13:03.055Z,15.80
2022-09-20T00:15:30.163Z,15.80
2022-09-20T00:17:56.934Z,15.80
2022-09-20T00:20:23.956Z,15.70
2022-09-20T00:22:50.656Z,15.60
2022-09-20T00:25:18.054Z,15.60
2022-09-20T00:27:44.739Z,15.50
2022-09-20T00:30:14.576Z,15.40
2022-09-20T00:32:41.414Z,15.40
2022-09-20T00:35:08.711Z,15.30
2022-09-20T00:37:35.654Z,15.30
2022-09-20T00:40:02.902Z,15.20
2022-09-20T00:42:30.598Z,15.20
2022-09-20T00:44:59.124Z,15.20
2022-09-20T00:47:33.746Z,15.10
2022-09-20T00:50:12.674Z,15.10
2022-09-20T00:52:39.674Z,15.10
2022-09-20T00:55:07.715Z,15.00
2022-09-20T00:57:37.428Z,15.00
2022-09-20T01:00:06.866Z,15.00
2022-09-20T01:02:33.620Z,14.90
2022-09-20T01:05:00.301Z,14.80
2022-09-20T01:07:27.009Z,14.80
2022-09-20T01:09:53.709Z,14.80
2022-09-20T01:12:22.665Z,14.80
2022-09-20T01:14:50.391Z,14.70
2022-09-20T01:17:17.405Z,14.70
2022-09-20T01:19:56.370Z,14.70
2022-09-20T01:22:29.683Z,14.60
2022-09-20T01:25:19.837Z,14.50
2022-09-20T01:27:50.567Z,14.50
2022-09-20T01:30:19.709Z,14.40
2022-09-20T01:33:09.763Z,14.40
2022-09-20T01:35:36.539Z,14.30
2022-09-20T01:38:05.969Z,14.30
2022-09-20T01:41:06.706Z,14.20
2022-09-20T01:43:48.969Z,14.20
2022-09-20T01:46:31.931Z,14.10
2022-09-20T01:49:20.401Z,14.00
2022-09-20T01:52:05.755Z,13.90
2022-09-20T01:55:19.785Z,13.80
2022-09-20T01:58:07.662Z,13.80
2022-09-20T02:00:42.261Z,13.70
2022-09-20T02:03:08.965Z,13.60
2022-09-20T02:06:06.011Z,13.60
2022-09-20T02:08:56.741Z,13.50
2022-09-20T02:11:35.417Z,13.50
2022-09-20T02:14:22.066Z,13.50
2022-09-20T02:16:49.605Z,13.50
2022-09-20T02:19:28.641Z,13.50
2022-09-20T02:22:15.659Z,13.50
2022-09-20T02:24:51.079Z,13.60
2022-09-20T02:27:17.740Z,13.60
2022-09-20T02:30:16.676Z,13.70
2022-09-20T02:33:01.077Z,13.70
2022-09-20T02:36:09.887Z,13.70
2022-09-20T02:38:48.615Z,13.70
2022-09-20T02:41:43.881Z,13.70
2022-09-20T02:44:29.196Z,13.70
2022-09-20T02:47:04.788Z,13.70
2022-09-20T02:49:52.305Z,13.70
2022-09-20T02:52:47.118Z,13.70
2022-09-20T02:55:35.059Z,13.70
2022-09-20T02:58:18.445Z,13.80
2022-09-20T03:00:48.159Z,13.70
2022-09-20T03:03:45.541Z,13.60
2022-09-20T03:06:24.398Z,13.60
2022-09-20T03:09:12.885Z,13.50
2022-09-20T03:11:55.309Z,13.50
2022-09-20T03:14:28.318Z,13.40
2022-09-20T03:16:57.778Z,13.30
2022-09-20T03:20:01.737Z,13.30
2022-09-20T03:22:55.802Z,13.40
2022-09-20T03:25:50.090Z,13.40
2022-09-20T03:28:44.872Z,13.50
2022-09-20T03:31:31.055Z,13.60
2022-09-20T03:34:03.628Z,13.60
2022-09-20T03:36:36.067Z,13.70
2022-09-20T03:39:25.653Z,13.70
2022-09-20T03:42:16.735Z,13.70
2022-09-20T03:45:05.136Z,13.70
2022-09-20T03:47:41.894Z,13.70
2022-09-20T03:50:31.782Z,13.70
2022-09-20T03:53:32.504Z,13.70
2022-09-20T03:55:59.190Z,13.70
2022-09-20T03:58:48.921Z,13.70
2022-09-20T04:01:25.462Z,13.70
2022-09-20T04:04:27.466Z,13.70
2022-09-20T04:06:57.190Z,13.80
2022-09-20T04:10:15.266Z,13.90
2022-09-20T04:13:26.844Z,13.90
2022-09-20T04:16:27.088Z,13.90
2022-09-20T04:19:38.733Z,13.80
2022-09-20T04:22:05.650Z,13.80
2022-09-20T04:24:40.716Z,13.70
2022-09-20T04:27:27.853Z,13.70
2022-09-20T04:30:03.453Z,13.60
2022-09-20T04:32:39.340Z,13.50
2022-09-20T04:35:43.547Z,13.50
2022-09-20T04:38:12.548Z,13.40
2022-09-20T04:40:54.941Z,13.40
2022-09-20T04:43:42.750Z,13.30
2022-09-20T04:46:09.618Z,13.30
2022-09-20T04:48:45.147Z,13.20
2022-09-20T04:51:30.630Z,13.20
2022-09-20T04:54:20.803Z,13.20
2022-09-20T04:56:56.382Z,13.10
2022-09-20T04:59:50.799Z,13.10
2022-09-20T05:02:28.769Z,13.10
2022-09-20T05:05:23.398Z,13.10
2022-09-20T05:08:05.079Z,13.00
2022-09-20T05:11:16.236Z,13.00
2022-09-20T05:14:07.091Z,12.90
2022-09-20T05:17:19.082Z,12.90
2022-09-20T05:19:45.837Z,12.90
2022-09-20T05:22:47.836Z,12.80
2022-09-20T05:25:24.556Z,12.80
2022-09-20T05:28:06.449Z,12.80
2022-09-20T05:30:49.724Z,12.80
2022-09-20T05:33:38.328Z,12.70
2022-09-20T05:36:07.453Z,12.70
2022-09-20T05:38:53.966Z,12.70
2022-09-20T05:41:39.510Z,12.60
2022-09-20T05:44:30.856Z,12.60
2022-09-20T05:47:35.482Z,12.60
2022-09-20T05:50:36.337Z,12.50
2022-09-20T05:53:11.046Z,12.40
2022-09-20T05:55:59.652Z,12.40
2022-09-20T05:58:52.351Z,12.40
2022-09-20T06:01:26.048Z,12.30
2022-09-20T06:04:08.825Z,12.30
2022-09-20T06:06:51.927Z,12.30
2022-09-20T06:09:18.480Z,12.20
2022-09-20T06:12:17.287Z,12.20
2022-09-20T06:15:21.923Z,12.10
2022-09-20T06:18:10.761Z,12.10
2022-09-20T06:20:43.413Z,12.10
2022-09-20T06:23:10.120Z,12.10
2022-09-20T06:25:48.894Z,12.10
2022-09-20T06:28:20.036Z,12.10
2022-09-20T06:30:48.451Z,12.10
2022-09-20T06:33:19.652Z,12.10
2022-09-20T06:35:58.834Z,12.10
2022-09-20T06:38:50.987Z,12.20
2022-09-20T06:41:17.713Z,12.20
2022-09-20T06:43:44.379Z,12.30
2022-09-20T06:46:11.101Z,12.40
2022-09-20T06:48:37.812Z,12.40
2022-09-20T06:51:04.595Z,12.50
2022-09-20T06:53:32.650Z,12.60
2022-09-20T06:55:59.902Z,12.70
2022-09-20T06:58:26.606Z,12.70
2022-09-20T07:00:53.311Z,12.70
2022-09-20T07:03:20.052Z,12.70
2022-09-20T07:05:49.117Z,12.70
2022-09-20T07:08:16.470Z,12.70
2022-09-20T07:10:45.891Z,12.80
2022-09-20T07:13:14.620Z,12.80
2022-09-20T07:15:43.362Z,12.90
2022-09-20T07:18:10.015Z,13.00
2022-09-20T07:20:36.722Z,13.00
2022-09-20T07:23:03.469Z,13.20
2022-09-20T07:25:31.238Z,13.30
2022-09-20T07:27:57.941Z,13.40
2022-09-20T07:30:24.630Z,13.50
2022-09-20T07:35:44.624Z,13.80
2022-09-20T07:38:13.441Z,13.80
2022-09-20T07:40:40.326Z,14.10
2022-09-20T07:43:16.072Z,14.20
2022-09-20T07:45:42.865Z,14.40
2022-09-20T07:48:09.540Z,14.60
2022-09-20T07:50:42.125Z,14.70
2022-09-20T07:53:13.969Z,14.80
2022-09-20T07:55:41.278Z,14.90
2022-09-20T07:58:10.132Z,15.10
2022-09-20T08:00:36.806Z,15.20
2022-09-20T08:03:03.491Z,15.30
2022-09-20T08:05:30.157Z,15.40
2022-09-20T08:07:56.834Z,15.50
2022-09-20T08:10:23.528Z,15.60
2022-09-20T08:15:37.042Z,15.90
2022-09-20T08:18:03.779Z,16.00
2022-09-20T08:20:30.474Z,16.10
2022-09-20T08:23:22.636Z,16.20
2022-09-20T08:28:41.667Z,16.40
2022-09-20T08:31:09.760Z,16.60
2022-09-20T08:33:36.696Z,16.70
2022-09-20T08:36:04.165Z,16.90
2022-09-20T08:41:31.323Z,17.20
2022-09-20T08:44:07.893Z,17.30
2022-09-20T08:46:35.665Z,17.40
2022-09-20T08:49:04.722Z,17.50
2022-09-20T08:51:33.506Z,17.60
2022-09-20T08:54:00.293Z,17.70
2022-09-20T08:56:29.305Z,17.70
2022-09-20T08:58:56.076Z,17.90
2022-09-20T09:01:24.277Z,17.90
2022-09-20T09:03:52.133Z,18.20
2022-09-20T09:06:20.384Z,18.20
2022-09-20T09:08:47.073Z,18.30
2022-09-20T09:11:15.149Z,18.50
2022-09-20T09:13:55.776Z,18.70
2022-09-20T09:16:30.154Z,18.90
2022-09-20T09:19:26.390Z,19.10
2022-09-20T09:22:00.392Z,19.40
2022-09-20T09:24:27.105Z,19.70
2022-09-20T09:27:13.284Z,19.80
2022-09-20T09:29:52.155Z,19.90
2022-09-20T09:32:27.040Z,19.80
2022-09-20T09:34:53.739Z,19.80
2022-09-20T09:37:29.167Z,19.80
2022-09-20T09:40:09.661Z,19.70
2022-09-20T09:42:36.390Z,19.70
2022-09-20T09:45:13.444Z,19.80
2022-09-20T09:47:40.154Z,20.00
2022-09-20T09:50:09.875Z,20.20
2022-09-20T09:52:36.776Z,20.50
2022-09-20T09:55:05.688Z,20.80
2022-09-20T09:57:59.835Z,21.00
2022-09-20T10:00:26.655Z,21.10
2022-09-20T10:03:07.553Z,21.10
2022-09-20T10:05:49.838Z,21.20
2022-09-20T10:08:38.210Z,21.20
2022-09-20T10:11:25.978Z,21.20
2022-09-20T10:14:14.276Z,21.40
2022-09-20T10:17:00.742Z,21.60
2022-09-20T10:19:39.528Z,22.30
2022-09-20T10:22:32.708Z,23.20
2022-09-20T10:25:16.988Z,24.10
2022-09-20T10:27:57.373Z,24.40
2022-09-20T10:30:25.727Z,24.30
2022-09-20T10:33:02.891Z,24.00
2022-09-20T10:35:40.182Z,23.80
2022-09-20T10:38:18.174Z,23.40
2022-09-20T10:41:14.134Z,23.10
2022-09-20T10:44:05.679Z,22.80
2022-09-20T10:46:59.847Z,23.10
2022-09-20T10:49:36.656Z,23.50
2022-09-20T10:52:34.361Z,23.70
2022-09-20T10:55:16.204Z,24.00
2022-09-20T10:58:08.398Z,24.10
2022-09-20T11:00:57.132Z,24.20
2022-09-20T11:03:35.790Z,24.70
2022-09-20T11:06:10.273Z,25.20
2022-09-20T11:08:37.697Z,25.30
2022-09-20T11:11:16.217Z,25.20
2022-09-20T11:13:51.091Z,24.90
2022-09-20T11:16:36.057Z,24.70
2022-09-20T11:19:14.366Z,24.50
2022-09-20T11:21:52.818Z,24.70
2022-09-20T11:24:28.696Z,25.20
2022-09-20T11:27:10.053Z,25.90
2022-09-20T11:29:40.440Z,26.70
2022-09-20T11:32:30.888Z,27.20
2022-09-20T11:35:01.899Z,27.70
2022-09-20T11:37:32.823Z,28.10
2022-09-20T11:40:23.433Z,28.30
2022-09-20T11:42:52.819Z,28.30
2022-09-20T11:45:21.598Z,28.10
2022-09-20T11:48:02.190Z,27.50
2022-09-20T11:50:47.917Z,27.00
2022-09-20T11:53:37.801Z,26.60
2022-09-20T11:56:16.544Z,26.20
2022-09-20T11:58:53.776Z,26.10
2022-09-20T12:04:32.954Z,26.00
2022-09-20T12:07:18.615Z,26.00
2022-09-20T12:09:59.723Z,25.90
2022-09-20T12:12:47.463Z,26.20
2022-09-20T12:15:35.130Z,26.70
2022-09-20T12:18:09.206Z,27.20
2022-09-20T12:20:54.368Z,27.20
2022-09-20T12:23:39.138Z,27.10
2022-09-20T12:26:06.445Z,26.90
2022-09-20T12:28:45.622Z,26.60
2022-09-20T12:31:18.505Z,26.10
2022-09-20T12:34:01.471Z,25.80
2022-09-20T12:36:35.365Z,25.80
2022-09-20T12:39:11.278Z,25.80
2022-09-20T12:42:05.970Z,25.90
2022-09-20T12:44:40.183Z,25.90
2022-09-20T12:47:10.688Z,26.10
2022-09-20T12:49:46.270Z,25.90
2022-09-20T12:52:29.758Z,25.70
2022-09-20T12:54:59.476Z,25.60
2022-09-20T12:57:31.114Z,25.40
2022-09-20T12:59:59.878Z,25.20
2022-09-20T13:02:44.076Z,24.80
2022-09-20T13:05:30.984Z,24.50
2022-09-20T13:08:02.362Z,24.50
2022-09-20T13:10:30.537Z,25.10
2022-09-20T13:13:13.985Z,26.00
2022-09-20T13:15:40.644Z,26.80
2022-09-20T13:18:11.019Z,27.20
2022-09-20T13:20:42.347Z,27.50
2022-09-20T13:23:15.990Z,27.50
2022-09-20T13:25:42.689Z,27.50
2022-09-20T13:28:31.172Z,27.60
2022-09-20T13:31:22.335Z,28.00
2022-09-20T13:33:49.119Z,29.00
2022-09-20T13:36:18.843Z,29.90
2022-09-20T13:38:45.517Z,30.50
2022-09-20T13:41:12.181Z,30.30
2022-09-20T13:43:47.965Z,29.80
2022-09-20T13:46:16.590Z,29.20
2022-09-20T13:48:46.543Z,28.70
2022-09-20T13:51:24.678Z,28.30
2022-09-20T13:53:51.407Z,27.80
2022-09-20T13:56:18.100Z,27.60
2022-09-20T13:58:44.847Z,27.40
2022-09-20T14:01:29.981Z,27.10
2022-09-20T14:04:08.532Z,26.90
2022-09-20T14:06:35.315Z,26.90
2022-09-20T14:09:10.688Z,27.00
2022-09-20T14:11:38.226Z,27.20
2022-09-20T14:14:18.585Z,27.30
2022-09-20T14:16:48.062Z,27.40
2022-09-20T14:19:22.307Z,27.40
2022-09-20T14:21:49.283Z,27.60
2022-09-20T14:24:32.412Z,27.90
2022-09-20T14:27:31.415Z,28.10
2022-09-20T14:30:02.364Z,28.00
2022-09-20T14:32:41.857Z,27.60
2022-09-20T14:35:17.148Z,27.40
2022-09-20T14:37:50.468Z,27.60
2022-09-20T14:40:39.553Z,28.10
2022-09-20T14:43:06.560Z,28.20
2022-09-20T14:45:39.928Z,27.90
2022-09-20T14:48:26.665Z,27.70
2022-09-20T14:51:15.478Z,27.80
2022-09-20T14:53:46.084Z,27.90
2022-09-20T14:56:17.675Z,28.00
2022-09-20T14:59:19.425Z,28.20
2022-09-20T15:02:14.834Z,28.30
2022-09-20T15:04:43.295Z,28.00
2022-09-20T15:07:10.286Z,27.60
2022-09-20T15:09:37.032Z,27.20
2022-09-20T15:12:07.735Z,26.70
2022-09-20T15:14:38.042Z,26.30
2022-09-20T15:17:05.082Z,25.90
2022-09-20T15:19:31.876Z,25.80
2022-09-20T15:21:59.302Z,26.00
2022-09-20T15:24:26.030Z,26.10
2022-09-20T15:26:52.743Z,26.10
2022-09-20T15:29:21.017Z,25.90
2022-09-20T15:31:48.455Z,25.60
2022-09-20T15:34:15.417Z,25.30
2022-09-20T15:36:42.197Z,25.00
2022-09-20T15:39:09.088Z,24.90
2022-09-20T15:41:36.487Z,24.70
2022-09-20T15:44:07.261Z,24.70
2022-09-20T15:46:34.251Z,24.70
2022-09-20T15:49:01.488Z,24.60
2022-09-20T15:51:28.401Z,24.40
2022-09-20T15:53:59.852Z,24.10
2022-09-20T15:56:27.957Z,23.90
2022-09-20T15:58:56.226Z,23.70
2022-09-20T16:01:23.000Z,23.50
2022-09-20T16:03:52.929Z,23.20
2022-09-20T16:06:19.698Z,23.00
2022-09-20T16:08:46.463Z,22.80
2022-09-20T16:11:14.341Z,22.60
2022-09-20T16:13:41.121Z,22.50
2022-09-20T16:16:09.304Z,22.30
2022-09-20T16:18:36.450Z,22.10
2022-09-20T16:21:10.374Z,22.00
2022-09-20T16:23:39.000Z,21.90
2022-09-20T16:26:06.343Z,21.70
2022-09-20T16:28:36.202Z,21.60
2022-09-20T16:31:02.881Z,21.50
2022-09-20T16:33:29.588Z,21.50
2022-09-20T16:35:56.329Z,21.40
2022-09-20T16:38:23.270Z,21.40
2022-09-20T16:40:50.284Z,21.30
2022-09-20T16:43:17.423Z,21.30
2022-09-20T16:48:28.301Z,21.20
2022-09-20T16:50:55.087Z,21.20
2022-09-20T16:53:21.966Z,21.20
2022-09-20T16:55:48.805Z,21.10
2022-09-20T16:58:44.988Z,21.10
2022-09-20T17:01:11.826Z,21.10
2022-09-20T17:03:41.251Z,21.00
2022-09-20T17:06:08.697Z,21.00
2022-09-20T17:08:35.847Z,20.90
2022-09-20T17:11:17.764Z,20.90
2022-09-20T17:13:44.984Z,20.90
2022-09-20T17:16:16.004Z,20.80
2022-09-20T17:18:43.096Z,20.80
2022-09-20T17:21:13.511Z,20.70
2022-09-20T17:23:50.079Z,20.70
2022-09-20T17:26:19.152Z,20.60
2022-09-20T17:28:47.267Z,20.60
2022-09-20T17:31:15.710Z,20.60
2022-09-20T17:33:42.723Z,20.50
2022-09-20T17:36:12.353Z,20.50
2022-09-20T17:38:39.044Z,20.40
2022-09-20T17:41:12.060Z,20.40
2022-09-20T17:43:38.750Z,20.30
2022-09-20T17:46:22.458Z,20.30
2022-09-20T17:48:57.973Z,20.20
2022-09-20T17:51:29.643Z,20.20
2022-09-20T17:53:56.406Z,20.10
2022-09-20T17:56:23.234Z,20.00
2022-09-20T17:58:50.138Z,20.00
2022-09-20T18:01:18.326Z,20.00
2022-09-20T18:03:46.370Z,19.90
2022-09-20T18:06:33.138Z,19.90
2022-09-20T18:09:03.345Z,19.80
2022-09-20T18:11:34.479Z,19.80
2022-09-20T18:14:01.547Z,19.70
2022-09-20T18:16:30.740Z,19.70
2022-09-20T18:18:57.528Z,19.60
2022-09-20T18:21:25.138Z,19.50
2022-09-20T18:23:52.109Z,19.50
2022-09-20T18:26:23.073Z,19.40
2022-09-20T18:29:10.652Z,19.40
2022-09-20T18:31:38.985Z,19.30
2022-09-20T18:34:11.420Z,19.20
2022-09-20T18:36:38.975Z,19.20
2022-09-20T18:39:06.878Z,19.10
2022-09-20T18:44:21.767Z,19.00
2022-09-20T18:46:48.729Z,18.90
2022-09-20T18:49:15.488Z,18.90
2022-09-20T18:51:42.930Z,18.80
2022-09-20T18:54:10.123Z,18.80
2022-09-20T18:56:38.193Z,18.70
2022-09-20T18:59:06.721Z,18.60
2022-09-20T19:01:51.764Z,18.60
2022-09-20T19:04:55.918Z,18.60
2022-09-20T19:07:34.484Z,18.50
2022-09-20T19:10:19.798Z,18.50
2022-09-20T19:12:58.374Z,18.40
2022-09-20T19:15:37.146Z,18.40
2022-09-20T19:18:27.671Z,18.40
2022-09-20T19:24:47.651Z,18.30
2022-09-20T19:27:14.529Z,18.30
2022-09-20T19:29:44.129Z,18.20
2022-09-20T19:32:16.248Z,18.20
2022-09-20T19:34:49.786Z,18.10
2022-09-20T19:37:34.812Z,18.00
2022-09-20T19:40:20.889Z,18.00
2022-09-20T19:42:56.001Z,18.00
2022-09-20T19:45:25.600Z,18.00
2022-09-20T19:48:24.698Z,17.90
2022-09-20T19:50:54.778Z,17.90
2022-09-20T19:53:22.338Z,17.80
2022-09-20T19:56:14.874Z,17.80
2022-09-20T19:58:41.790Z,17.70
2022-09-20T20:01:09.631Z,17.70
2022-09-20T20:03:36.655Z,17.60
2022-09-20T20:06:08.587Z,17.60
2022-09-20T20:08:46.599Z,17.60
2022-09-20T20:11:17.883Z,17.50
2022-09-20T20:14:10.385Z,17.40
2022-09-20T20:17:11.326Z,17.40
2022-09-20T20:19:49.704Z,17.30
2022-09-20T20:22:22.698Z,17.30
2022-09-20T20:24:53.341Z,17.20
2022-09-20T20:27:20.660Z,17.10
2022-09-20T20:29:47.402Z,17.00
2022-09-20T20:32:14.206Z,17.00
2022-09-20T20:34:41.037Z,17.00
2022-09-20T20:37:08.260Z,17.00
2022-09-20T20:39:34.923Z,17.00
2022-09-20T20:42:02.681Z,17.00
2022-09-20T20:44:33.348Z,17.00
2022-09-20T20:47:00.096Z,17.00
2022-09-20T20:49:26.798Z,17.00
2022-09-20T20:51:53.509Z,17.00
2022-09-20T20:54:20.190Z,17.00
2022-09-20T20:56:46.999Z,16.90
2022-09-20T20:59:13.658Z,16.80
2022-09-20T21:01:44.938Z,16.80
2022-09-20T21:04:12.667Z,16.80
2022-09-20T21:06:40.174Z,16.70
2022-09-20T21:09:07.564Z,16.70
2022-09-20T21:11:39.145Z,16.70
2022-09-20T21:14:07.249Z,16.70
2022-09-20T21:16:35.531Z,16.60
2022-09-20T21:19:02.469Z,16.50
2022-09-20T21:21:33.868Z,16.50
2022-09-20T21:24:05.265Z,16.40
2022-09-20T21:26:35.197Z,16.30
2022-09-20T21:29:06.428Z,16.30
2022-09-20T21:31:35.132Z,16.20
2022-09-20T21:34:02.145Z,16.10
2022-09-20T21:36:29.941Z,16.10
2022-09-20T21:38:56.789Z,16.00
2022-09-20T21:41:24.924Z,15.90
2022-09-20T21:43:53.036Z,15.90
2022-09-20T21:46:40.695Z,15.80
2022-09-20T21:49:09.750Z,15.80
2022-09-20T21:51:36.820Z,15.80
2022-09-20T21:54:03.963Z,15.80
2022-09-20T21:56:32.290Z,15.80
2022-09-20T21:58:59.578Z,15.80
2022-09-20T22:01:27.430Z,15.70
2022-09-20T22:03:56.460Z,15.70
2022-09-20T22:06:28.794Z,15.60
2022-09-20T22:09:00.214Z,15.60
2022-09-20T22:11:28.669Z,15.50
2022-09-20T22:13:56.435Z,15.50
2022-09-20T22:16:31.263Z,15.50
2022-09-20T22:18:58.256Z,15.50
2022-09-20T22:21:26.621Z,15.50
2022-09-20T22:23:55.173Z,15.50
2022-09-20T22:26:22.087Z,15.50
2022-09-20T22:28:49.041Z,15.60
2022-09-20T22:31:20.980Z,15.60
2022-09-20T22:33:49.513Z,15.60
2022-09-20T22:36:18.544Z,15.50
2022-09-20T22:38:45.352Z,15.50
2022-09-20T22:41:12.988Z,15.50
2022-09-20T22:43:39.828Z,15.40
2022-09-20T22:46:08.456Z,15.40
2022-09-20T22:48:35.463Z,15.40
2022-09-20T22:51:03.523Z,15.30
2022-09-20T22:53:30.474Z,15.30
2022-09-20T22:56:03.831Z,15.20
2022-09-20T22:58:35.179Z,15.20
2022-09-20T23:01:09.362Z,15.20
2022-09-20T23:03:36.769Z,15.20
2022-09-20T23:06:03.603Z,15.20
2022-09-20T23:08:33.415Z,15.20
2022-09-20T23:11:01.902Z,15.20
2022-09-20T23:13:28.975Z,15.20
2022-09-20T23:15:55.686Z,15.10
2022-09-20T23:18:22.654Z,15.20
2022-09-20T23:20:57.316Z,15.10
2022-09-20T23:23:24.030Z,15.10
2022-09-20T23:25:50.776Z,15.10
2022-09-20T23:28:17.495Z,15.10
2022-09-20T23:30:44.281Z,15.00
2022-09-20T23:33:11.037Z,15.00
2022-09-20T23:35:43.299Z,15.00
2022-09-20T23:38:10.016Z,15.00
2022-09-20T23:40:36.816Z,15.00
2022-09-20T23:43:03.935Z,15.00
2022-09-20T23:45:30.700Z,15.00
2022-09-20T23:47:57.406Z,15.00
2022-09-20T23:50:31.125Z,15.00
2022-09-20T23:52:58.019Z,15.00
2022-09-20T23:55:24.767Z,15.00
2022-09-20T23:57:55.438Z,15.00
